Herculaneum, MO

3:07 PM CDT on May 05, 2015 (GMT -0500)
APRSWXNET | | Change Station
CLOSE
Current Station
Personal Weather Station
Location: Pevely, MO
Elevation: 453 ft
Nearby Weather Stations

Elev 453 ft 38.28 °N, 90.46 °W | Updated 36 minutes ago

Mostly Cloudy
Mostly Cloudy
78 °F
Feels Like 80 °F
N
1
Wind Variable Wind from ESE
Gusts 6.0 mph

Today
High -- | Low -- °F
--% Chance of Precip.
Yesterday
High -- | Low -- °F
Precip. -- in
6:00 AM 7:56 PM
Full, 97% visible
Pressure 30.13 in
Visibility 10.0 miles
Clouds Few 6500 ft
Mostly Cloudy 10000 ft
Heat Index 80 °F
Dew Point 62 °F
Humidity 57%
Rainfall in
Snow Depth Not available.
UV 5 out of 12
Pollen 8.10 out of 12
Air Quality Not available.
Flu Activity Sporadic
METAR KCPS 051953Z 20011G17KT 10SM FEW065 BKN100 28/13 A3014 RMK AO2 SLP202 T02780128

More Conditions Fewer Conditions

Pressure 30.13 in
Visibility 10.0 miles
Clouds Few 6500 ft
Mostly Cloudy 10000 ft
Heat Index 80 °F
Dew Point 62 °F
Humidity 57%
Rainfall in
Snow Depth Not available.
UV 5 out of 12
Pollen 8.10 out of 12
Air Quality Not available.
Flu Activity Sporadic
METAR KCPS 051953Z 20011G17KT 10SM FEW065 BKN100 28/13 A3014 RMK AO2 SLP202 T02780128

More Conditions Fewer Conditions

10-Day Weather Forecast

Almanac

Astronomy

May. 05, 2015 Rise Set
Actual Time
Civil Twilight
Nautical Twilight
Astronomical Twilight
Moon
Length of Visible Light
Length of Day
Tomorrow will be .
, % of the Moon is Illuminated

Today's Extremes

State Highs State Lows

Community

WunderPhotos

Upload Photos

1,818,965 photos uploaded!

WunderBlogs® & News

Nearby

Air Quality

  Air Quality AQ Index Pollutant
Not available.

Snow Depth

Station Depth Elevation

Earthquake Activity

City Distance Mag. Time & Date
Minimum magnitude displayed is 2.5.

Coastal Water Temperatures

Place Temperature

Stations

Nearby Weather Stations

Station Location Temp. Windchill Dew Point Humidity Wind Precip. Elev Updated Type